Time;durP1;ratioP1;P1;durP2;ratioP2;P2;SDS_P1;SDS_P2;PMS_P1;PMS_P2;Temp;Humidity;BMP_temperature;BMP_pressure;BME280_temperature;BME280_humidity;BME280_pressure;Samples;Min_cycle;Max_cycle;Signal;HPM_P1;HPM_P2
2021/03/12 00:00:59;;;;;;;2.00;1.00;;;6.50;99.90;;;;;;4757714;29;20463;-82
2021/03/12 00:03:29;;;;;;;1.30;1.00;;;6.50;99.90;;;;;;4758257;30;20962;-82
2021/03/12 00:05:56;;;;;;;0.80;0.80;;;6.50;99.90;;;;;;4742653;29;20409;-80
2021/03/12 00:08:27;;;;;;;1.00;1.00;;;6.40;99.90;;;;;;4771261;29;20478;-82
2021/03/12 00:10:53;;;;;;;0.77;0.77;;;6.40;99.90;;;;;;4774537;29;20434;-80
2021/03/12 00:13:20;;;;;;;0.90;0.83;;;6.40;99.90;;;;;;4772559;29;20407;-81
2021/03/12 00:15:46;;;;;;;0.90;0.90;;;6.40;99.90;;;;;;4771327;29;20792;-80
2021/03/12 00:18:16;;;;;;;0.80;0.80;;;6.40;99.90;;;;;;4779220;29;20443;-80
2021/03/12 00:20:42;;;;;;;1.02;1.02;;;6.50;99.90;;;;;;4754096;29;20421;-80
2021/03/12 00:23:08;;;;;;;1.00;1.00;;;6.60;99.90;;;;;;4775127;29;20525;-80
2021/03/12 00:25:37;;;;;;;0.90;0.90;;;6.50;99.90;;;;;;4771527;29;20968;-82
2021/03/12 00:28:04;;;;;;;0.88;0.88;;;6.50;99.90;;;;;;4781336;29;20414;-79
2021/03/12 00:30:30;;;;;;;1.10;0.97;;;6.50;99.90;;;;;;4760744;29;20431;-80
2021/03/12 00:32:56;;;;;;;1.20;0.90;;;6.40;99.90;;;;;;4771375;29;20522;-80
2021/03/12 00:35:22;;;;;;;1.30;1.10;;;6.50;99.90;;;;;;4770960;29;20427;-79
2021/03/12 00:37:48;;;;;;;1.70;1.00;;;6.40;99.90;;;;;;4773062;29;20537;-80
2021/03/12 00:40:18;;;;;;;1.10;1.00;;;6.40;99.90;;;;;;4771247;29;20440;-80
2021/03/12 00:42:44;;;;;;;1.27;1.20;;;6.30;99.90;;;;;;4757192;29;20427;-79
2021/03/12 00:45:14;;;;;;;1.00;1.00;;;6.30;99.90;;;;;;4760512;29;20441;-80
2021/03/12 00:47:44;;;;;;;1.05;1.05;;;6.30;99.90;;;;;;4773545;29;20422;-80
2021/03/12 00:50:12;;;;;;;1.08;0.98;;;6.40;99.90;;;;;;4771145;29;20423;-80
2021/03/12 00:52:38;;;;;;;1.90;0.90;;;6.40;99.90;;;;;;4784765;29;21123;-80
2021/03/12 00:55:05;;;;;;;1.00;1.00;;;6.40;99.90;;;;;;4770916;30;20429;-80
2021/03/12 00:57:37;;;;;;;0.88;0.88;;;6.40;99.90;;;;;;4771841;29;20539;-81
2021/03/12 01:00:04;;;;;;;1.15;0.98;;;6.40;99.90;;;;;;4772169;29;20542;-80
2021/03/12 01:02:35;;;;;;;1.45;1.35;;;6.40;99.90;;;;;;4756013;29;20572;-80
2021/03/12 01:05:01;;;;;;;1.20;1.10;;;6.50;99.90;;;;;;4770155;29;20490;-80
2021/03/12 01:07:27;;;;;;;1.02;1.02;;;6.50;99.90;;;;;;4770039;29;20418;-80
2021/03/12 01:09:53;;;;;;;1.08;1.08;;;6.50;99.90;;;;;;4766148;29;20428;-80
2021/03/12 01:12:18;;;;;;;1.17;1.10;;;6.50;99.90;;;;;;4782771;29;20420;-82
2021/03/12 01:14:46;;;;;;;1.42;1.33;;;6.40;99.90;;;;;;4781276;29;20443;-79
2021/03/12 01:17:12;;;;;;;1.50;1.27;;;6.50;99.90;;;;;;4766866;29;20409;-80
2021/03/12 01:19:37;;;;;;;1.30;1.20;;;6.40;99.90;;;;;;4802713;29;21099;-80
2021/03/12 01:22:06;;;;;;;1.35;1.25;;;6.40;99.90;;;;;;4769884;29;20435;-80
2021/03/12 01:24:33;;;;;;;1.50;1.40;;;6.40;99.90;;;;;;4768958;29;20510;-79
2021/03/12 01:27:04;;;;;;;1.38;1.27;;;6.40;99.90;;;;;;4761594;30;20421;-79
2021/03/12 01:29:30;;;;;;;1.45;1.35;;;6.30;99.90;;;;;;4774988;29;20428;-79
2021/03/12 01:32:07;;;;;;;1.23;1.15;;;6.30;99.90;;;;;;4754487;29;20429;-80
2021/03/12 01:34:38;;;;;;;1.50;1.40;;;6.30;99.90;;;;;;4771429;29;20427;-79
2021/03/12 01:37:06;;;;;;;1.40;1.30;;;6.30;99.90;;;;;;4788268;29;20411;-79
2021/03/12 01:39:40;;;;;;;1.40;1.30;;;6.30;99.90;;;;;;4767741;29;20943;-80
2021/03/12 01:42:06;;;;;;;1.17;1.17;;;6.30;99.90;;;;;;4765980;30;20459;-80
2021/03/12 01:44:36;;;;;;;2.10;1.50;;;6.20;99.90;;;;;;4776382;29;20449;-79
2021/03/12 01:47:03;;;;;;;1.00;1.00;;;6.30;99.90;;;;;;4772480;29;20425;-81
2021/03/12 01:49:30;;;;;;;1.30;1.20;;;6.20;99.90;;;;;;4784912;29;20449;-81
2021/03/12 01:51:56;;;;;;;2.25;1.38;;;6.30;99.90;;;;;;4785873;29;20450;-81
2021/03/12 01:54:21;;;;;;;1.33;1.23;;;6.20;99.90;;;;;;4784890;29;20449;-81
2021/03/12 01:56:57;;;;;;;2.03;1.40;;;6.20;99.90;;;;;;4784935;29;21149;-81
2021/03/12 01:59:33;;;;;;;1.40;1.30;;;6.30;99.90;;;;;;4784942;29;20421;-83
2021/03/12 02:02:13;;;;;;;2.10;1.40;;;6.30;99.90;;;;;;4801985;29;20450;-80
2021/03/12 02:04:50;;;;;;;1.40;1.30;;;6.40;99.90;;;;;;4778196;29;20416;-79
2021/03/12 02:07:17;;;;;;;1.77;1.60;;;6.40;99.90;;;;;;4773027;29;20421;-80
2021/03/12 02:09:56;;;;;;;1.30;1.20;;;6.40;99.90;;;;;;4786010;29;20430;-79
2021/03/12 02:12:38;;;;;;;1.20;1.20;;;6.40;99.90;;;;;;4768320;29;20431;-79
2021/03/12 02:15:07;;;;;;;1.30;1.20;;;6.30;99.90;;;;;;4769808;29;20431;-79
2021/03/12 02:17:41;;;;;;;1.42;1.33;;;6.40;99.90;;;;;;4777986;29;20445;-80
2021/03/12 02:20:47;;;;;;;1.48;1.38;;;6.40;99.90;;;;;;4776324;29;20438;-80
2021/03/12 02:23:46;;;;;;;1.23;1.13;;;6.30;99.90;;;;;;4775146;29;20435;-80
2021/03/12 02:26:17;;;;;;;1.60;1.40;;;6.30;99.90;;;;;;4783957;29;20431;-79
2021/03/12 02:28:43;;;;;;;1.50;1.40;;;6.30;99.90;;;;;;4772569;29;20465;-81
2021/03/12 02:31:11;;;;;;;1.23;1.13;;;6.30;99.90;;;;;;4769598;29;20511;-79
2021/03/12 02:33:42;;;;;;;1.50;1.40;;;6.30;99.90;;;;;;4767678;30;20417;-79
2021/03/12 02:36:13;;;;;;;1.35;1.25;;;6.30;99.90;;;;;;4769969;29;20419;-79
2021/03/12 02:38:52;;;;;;;1.50;1.40;;;6.30;99.90;;;;;;4758946;29;20713;-80
2021/03/12 02:41:19;;;;;;;1.23;1.13;;;6.30;99.90;;;;;;4780764;29;20438;-79
2021/03/12 02:43:49;;;;;;;1.17;1.13;;;6.30;99.90;;;;;;4781897;29;20443;-80
2021/03/12 02:46:18;;;;;;;1.70;1.30;;;6.30;99.90;;;;;;4764897;29;20538;-79
2021/03/12 02:48:45;;;;;;;1.55;1.30;;;6.30;99.90;;;;;;4776226;29;20415;-80
2021/03/12 02:51:11;;;;;;;1.80;1.23;;;6.30;99.90;;;;;;4782604;29;20423;-80
2021/03/12 02:53:37;;;;;;;1.67;1.30;;;6.30;99.90;;;;;;4779993;29;20817;-80
2021/03/12 02:56:15;;;;;;;1.80;1.38;;;6.30;99.90;;;;;;4784319;29;20439;-80
2021/03/12 02:58:45;;;;;;;2.43;1.50;;;6.30;99.90;;;;;;4753788;29;20758;-80
2021/03/12 03:01:13;;;;;;;1.30;1.20;;;6.40;99.90;;;;;;4769164;29;20782;-81
2021/03/12 03:03:58;;;;;;;2.70;1.23;;;6.40;99.90;;;;;;4770193;29;20509;-81
2021/03/12 03:06:41;;;;;;;0.95;0.95;;;6.40;99.90;;;;;;4765598;29;20974;-79
2021/03/12 03:09:06;;;;;;;1.55;1.25;;;6.50;99.90;;;;;;4773608;29;20423;-78
2021/03/12 03:11:34;;;;;;;1.17;1.10;;;6.50;99.90;;;;;;4787583;29;20476;-79
2021/03/12 03:14:00;;;;;;;1.02;1.00;;;6.50;99.90;;;;;;4786465;29;20771;-78
2021/03/12 03:16:30;;;;;;;1.77;1.20;;;6.50;99.90;;;;;;4752692;29;20596;-80
2021/03/12 03:18:56;;;;;;;1.40;1.30;;;6.50;99.90;;;;;;4775898;29;20940;-83
2021/03/12 03:21:24;;;;;;;2.75;1.20;;;6.50;99.90;;;;;;4774500;29;20438;-80
2021/03/12 03:23:50;;;;;;;1.00;1.00;;;6.50;99.90;;;;;;4775661;29;20415;-80
2021/03/12 03:26:15;;;;;;;1.45;1.00;;;6.60;99.90;;;;;;4775677;29;20953;-80
2021/03/12 03:28:42;;;;;;;1.30;1.20;;;6.50;99.90;;;;;;4774363;29;20408;-80
2021/03/12 03:31:08;;;;;;;1.60;1.10;;;6.50;99.90;;;;;;4773513;29;20793;-81
2021/03/12 03:33:34;;;;;;;1.10;0.90;;;6.50;99.90;;;;;;4788552;29;20444;-79
2021/03/12 03:36:03;;;;;;;1.30;1.20;;;6.40;99.90;;;;;;4788705;29;20419;-81
2021/03/12 03:38:30;;;;;;;1.58;1.13;;;6.40;99.90;;;;;;4781799;29;20417;-85
2021/03/12 03:40:57;;;;;;;1.23;1.08;;;6.40;99.90;;;;;;4776211;29;20442;-80
2021/03/12 03:43:27;;;;;;;1.20;0.90;;;6.40;99.90;;;;;;4773626;29;20480;-79
2021/03/12 03:45:54;;;;;;;1.20;1.10;;;6.40;99.90;;;;;;4776098;29;20419;-78
2021/03/12 03:48:30;;;;;;;0.95;0.95;;;6.40;99.90;;;;;;4770496;29;20411;-79
2021/03/12 03:50:56;;;;;;;1.83;0.93;;;6.30;99.90;;;;;;4777006;29;20999;-77
2021/03/12 03:53:24;;;;;;;1.20;1.10;;;6.50;99.90;;;;;;4770410;29;20510;-77
2021/03/12 03:55:50;;;;;;;1.00;1.00;;;6.50;99.90;;;;;;4770040;29;20495;-78
2021/03/12 03:58:16;;;;;;;1.05;1.00;;;6.30;99.90;;;;;;4769139;29;20457;-78
2021/03/12 04:00:43;;;;;;;0.95;0.90;;;6.30;99.90;;;;;;4770198;29;22581;-78
2021/03/12 04:03:10;;;;;;;0.90;0.90;;;6.30;99.90;;;;;;4772386;29;20419;-82
2021/03/12 04:05:46;;;;;;;0.98;0.98;;;6.20;99.90;;;;;;4758857;29;20770;-77
2021/03/12 04:08:12;;;;;;;1.10;1.10;;;6.20;99.90;;;;;;4771612;29;21272;-79
2021/03/12 04:10:37;;;;;;;1.00;1.00;;;6.30;99.90;;;;;;4769625;30;20417;-78
2021/03/12 04:13:03;;;;;;;0.80;0.80;;;6.20;99.90;;;;;;4770612;29;21025;-78
2021/03/12 04:15:29;;;;;;;0.90;0.90;;;6.10;99.90;;;;;;4756557;29;20470;-77
2021/03/12 04:17:56;;;;;;;1.40;1.00;;;6.10;99.90;;;;;;4780767;29;20463;-79
2021/03/12 04:20:22;;;;;;;0.98;0.98;;;6.10;99.90;;;;;;4771148;29;20440;-77
2021/03/12 04:22:50;;;;;;;1.10;0.95;;;6.00;99.90;;;;;;4772142;29;20460;-79
2021/03/12 04:25:17;;;;;;;1.10;0.90;;;6.00;99.90;;;;;;4759542;29;20454;-77
2021/03/12 04:27:43;;;;;;;1.00;0.93;;;5.90;99.90;;;;;;4778393;29;20945;-78
2021/03/12 04:30:10;;;;;;;0.70;0.70;;;5.90;99.90;;;;;;4773928;29;20873;-78
2021/03/12 04:32:37;;;;;;;0.80;0.80;;;6.00;99.90;;;;;;4777094;29;20408;-77
2021/03/12 04:35:05;;;;;;;1.25;1.15;;;6.00;99.90;;;;;;4769865;29;20419;-80
2021/03/12 04:37:31;;;;;;;1.80;0.90;;;5.90;99.90;;;;;;4769839;29;20438;-78
2021/03/12 04:39:58;;;;;;;0.80;0.80;;;5.90;99.90;;;;;;4766673;29;20402;-77
2021/03/12 04:42:24;;;;;;;1.07;0.97;;;5.90;99.90;;;;;;4766681;30;20528;-77
2021/03/12 04:44:50;;;;;;;0.90;0.90;;;5.90;99.90;;;;;;4772241;29;20613;-78
2021/03/12 04:47:16;;;;;;;1.02;1.02;;;5.90;99.90;;;;;;4771257;29;20426;-79
2021/03/12 04:49:44;;;;;;;1.00;1.00;;;5.90;99.90;;;;;;4779673;29;20426;-78
2021/03/12 04:52:13;;;;;;;0.75;0.75;;;5.90;99.90;;;;;;4779511;29;20421;-79
2021/03/12 04:54:39;;;;;;;1.35;0.98;;;5.90;99.90;;;;;;4774607;29;20427;-78
2021/03/12 04:57:05;;;;;;;0.90;0.90;;;5.80;99.90;;;;;;4777312;29;20652;-79
2021/03/12 04:59:34;;;;;;;1.17;1.08;;;5.80;99.90;;;;;;4779522;29;20423;-79
2021/03/12 05:02:00;;;;;;;1.15;1.15;;;5.70;99.90;;;;;;4776424;29;20599;-77
2021/03/12 05:04:25;;;;;;;1.08;1.05;;;5.70;99.90;;;;;;4773746;29;20496;-78
2021/03/12 05:06:53;;;;;;;1.70;1.20;;;5.60;99.90;;;;;;4786729;29;20921;-79
2021/03/12 05:09:34;;;;;;;1.60;1.27;;;5.60;99.90;;;;;;4776972;29;20439;-80
2021/03/12 05:12:00;;;;;;;2.88;1.35;;;5.60;99.90;;;;;;4778319;29;20431;-81
2021/03/12 05:14:29;;;;;;;1.38;1.27;;;5.50;99.90;;;;;;4779180;29;20603;-80
2021/03/12 05:16:55;;;;;;;1.10;1.10;;;5.40;99.90;;;;;;4780391;29;20498;-80
2021/03/12 05:19:23;;;;;;;1.30;1.20;;;5.30;99.90;;;;;;4780498;29;20433;-80
2021/03/12 05:21:55;;;;;;;0.90;0.90;;;5.30;99.90;;;;;;4774324;29;20427;-79
2021/03/12 05:24:22;;;;;;;1.33;1.25;;;5.20;99.90;;;;;;4789230;29;20562;-79
2021/03/12 05:26:49;;;;;;;1.10;1.10;;;5.10;99.90;;;;;;4774917;29;20503;-82
2021/03/12 05:29:18;;;;;;;1.00;1.00;;;5.10;99.90;;;;;;4764687;29;20494;-81
2021/03/12 05:31:49;;;;;;;0.90;0.90;;;5.00;99.90;;;;;;4760580;29;20519;-84
2021/03/12 05:34:15;;;;;;;0.80;0.80;;;4.90;99.90;;;;;;4761764;29;20415;-83
2021/03/12 05:36:41;;;;;;;0.75;0.75;;;4.70;99.90;;;;;;4763087;29;20411;-80
2021/03/12 05:39:09;;;;;;;1.38;1.08;;;4.60;99.90;;;;;;4775643;29;20456;-80
2021/03/12 05:41:38;;;;;;;1.97;0.73;;;4.40;99.90;;;;;;4774945;29;20427;-83
2021/03/12 05:44:05;;;;;;;1.00;0.90;;;4.20;99.90;;;;;;4758149;30;20428;-79
2021/03/12 05:46:33;;;;;;;0.80;0.80;;;4.10;99.90;;;;;;4756019;29;20466;-81
2021/03/12 05:48:59;;;;;;;0.80;0.80;;;4.10;99.90;;;;;;4768142;29;20939;-81
2021/03/12 05:51:26;;;;;;;0.80;0.80;;;4.00;99.90;;;;;;4793996;29;20405;-82
2021/03/12 05:53:53;;;;;;;0.90;0.90;;;3.90;99.90;;;;;;4774940;29;20423;-82
2021/03/12 05:56:19;;;;;;;1.20;0.82;;;4.00;99.90;;;;;;4775383;29;20471;-80
2021/03/12 05:58:54;;;;;;;1.40;1.15;;;3.90;99.90;;;;;;4783567;29;20422;-79
2021/03/12 06:01:20;;;;;;;1.00;1.00;;;3.90;99.90;;;;;;4783117;29;20424;-78
2021/03/12 06:03:46;;;;;;;1.00;1.00;;;3.90;99.90;;;;;;4782902;29;20418;-78
2021/03/12 06:06:11;;;;;;;0.90;0.90;;;3.90;99.90;;;;;;4767112;29;20423;-78
2021/03/12 06:08:41;;;;;;;1.00;1.00;;;3.90;99.90;;;;;;4773977;29;20688;-77
2021/03/12 06:11:07;;;;;;;0.98;0.98;;;3.90;99.90;;;;;;4766910;29;21210;-78
2021/03/12 06:13:55;;;;;;;0.80;0.80;;;3.80;99.90;;;;;;4770929;29;20418;-77
2021/03/12 06:16:32;;;;;;;1.00;1.00;;;3.90;99.90;;;;;;4777710;29;20447;-77
2021/03/12 06:19:17;;;;;;;0.80;0.80;;;3.90;99.90;;;;;;4776298;29;20415;-78
2021/03/12 06:21:49;;;;;;;1.17;1.07;;;3.90;99.90;;;;;;4774166;29;20463;-77
2021/03/12 06:24:33;;;;;;;0.80;0.80;;;3.90;99.90;;;;;;4774170;29;20450;-77
2021/03/12 06:27:28;;;;;;;0.70;0.70;;;4.00;99.90;;;;;;4766683;29;20423;-78
2021/03/12 06:29:59;;;;;;;0.95;0.95;;;4.00;99.90;;;;;;4765191;29;20419;-77
2021/03/12 06:32:45;;;;;;;0.80;0.80;;;4.00;99.90;;;;;;4771375;29;20426;-77
2021/03/12 06:35:37;;;;;;;0.80;0.80;;;4.00;99.90;;;;;;4787022;29;20849;-77
2021/03/12 06:38:23;;;;;;;0.77;0.77;;;4.00;99.90;;;;;;4792592;29;20921;-79
2021/03/12 06:41:08;;;;;;;0.80;0.80;;;4.10;99.90;;;;;;4777593;29;20523;-77
2021/03/12 06:43:42;;;;;;;0.80;0.80;;;4.00;99.90;;;;;;4779692;29;20410;-76
2021/03/12 06:46:08;;;;;;;0.85;0.85;;;4.10;99.90;;;;;;4785909;29;20451;-79
2021/03/12 06:49:00;;;;;;;0.80;0.80;;;4.10;99.90;;;;;;4790037;29;20417;-78
2021/03/12 06:51:31;;;;;;;0.90;0.90;;;4.10;99.90;;;;;;4780694;29;20421;-79
2021/03/12 06:54:06;;;;;;;0.90;0.90;;;4.20;99.90;;;;;;4777091;29;20507;-77
2021/03/12 06:56:39;;;;;;;0.70;0.70;;;4.20;99.90;;;;;;4775882;29;20427;-78
2021/03/12 06:59:27;;;;;;;0.90;0.90;;;4.30;99.90;;;;;;4774430;29;20428;-78
2021/03/12 07:02:02;;;;;;;0.90;0.90;;;4.40;99.90;;;;;;4774037;29;20435;-78
2021/03/12 07:04:33;;;;;;;1.13;1.10;;;4.40;99.90;;;;;;4774515;29;20439;-78
2021/03/12 07:07:32;;;;;;;0.98;0.98;;;4.40;99.90;;;;;;4775920;29;20477;-77
2021/03/12 07:09:58;;;;;;;0.95;0.93;;;4.50;99.90;;;;;;4751085;29;20485;-77
2021/03/12 07:12:47;;;;;;;0.93;0.93;;;4.60;99.90;;;;;;4765668;30;20417;-79
2021/03/12 07:15:17;;;;;;;1.30;1.23;;;4.60;99.90;;;;;;4789298;29;20482;-78
2021/03/12 07:17:52;;;;;;;1.00;1.00;;;4.70;99.90;;;;;;4782693;29;20414;-79
2021/03/12 07:20:25;;;;;;;1.30;1.30;;;4.80;99.90;;;;;;4776459;29;20470;-80
2021/03/12 07:22:54;;;;;;;1.15;1.15;;;4.80;99.90;;;;;;4775365;29;20415;-79
2021/03/12 07:25:20;;;;;;;1.40;1.30;;;4.90;99.90;;;;;;4790282;29;20556;-79
2021/03/12 07:27:51;;;;;;;1.00;1.00;;;4.80;99.90;;;;;;4780214;29;20414;-81
2021/03/12 07:30:21;;;;;;;1.10;1.10;;;4.90;99.90;;;;;;4770740;29;20839;-79
2021/03/12 07:32:50;;;;;;;1.45;1.23;;;4.90;99.90;;;;;;4774660;29;20937;-79
2021/03/12 07:35:23;;;;;;;1.63;1.23;;;5.00;99.90;;;;;;4775619;29;20419;-79
2021/03/12 07:37:59;;;;;;;1.42;1.33;;;5.10;99.90;;;;;;4775264;29;20423;-80
2021/03/12 07:40:29;;;;;;;1.30;1.30;;;5.30;99.90;;;;;;4774122;29;20424;-80
2021/03/12 07:43:03;;;;;;;1.30;1.20;;;5.40;99.90;;;;;;4774911;29;20490;-78
2021/03/12 07:45:51;;;;;;;1.40;1.30;;;5.60;99.90;;;;;;4776314;29;20405;-79
2021/03/12 07:48:36;;;;;;;3.80;1.67;;;5.60;99.90;;;;;;4779168;29;20476;-79
2021/03/12 07:51:23;;;;;;;1.50;1.40;;;5.60;99.90;;;;;;4780292;29;20522;-81
2021/03/12 07:53:56;;;;;;;1.77;1.30;;;5.50;99.90;;;;;;4775834;29;20418;-82
2021/03/12 07:56:50;;;;;;;1.73;1.63;;;5.60;99.90;;;;;;4778785;29;20476;-81
2021/03/12 07:59:49;;;;;;;1.33;1.30;;;5.70;99.90;;;;;;4766852;30;20504;-83
2021/03/12 08:02:54;;;;;;;1.50;1.40;;;5.80;99.90;;;;;;4788646;29;20425;-81
2021/03/12 08:05:41;;;;;;;1.35;1.25;;;5.90;99.90;;;;;;4762117;29;20397;-82
2021/03/12 08:08:35;;;;;;;1.77;1.50;;;5.90;99.90;;;;;;4789198;29;20418;-81
2021/03/12 08:11:32;;;;;;;1.60;1.50;;;6.00;99.90;;;;;;4772849;29;21043;-81
2021/03/12 08:14:08;;;;;;;1.50;1.40;;;6.20;99.90;;;;;;4775703;29;21039;-80
2021/03/12 08:16:36;;;;;;;1.50;1.37;;;6.30;99.90;;;;;;4796909;29;20756;-85
2021/03/12 08:19:36;;;;;;;1.90;1.70;;;6.40;99.90;;;;;;4797386;29;20410;-80
2021/03/12 08:22:42;;;;;;;3.17;1.85;;;6.50;99.90;;;;;;4792255;29;20439;-81
2021/03/12 08:25:40;;;;;;;1.40;1.30;;;6.60;99.90;;;;;;4779268;29;20417;-82
2021/03/12 08:28:18;;;;;;;1.90;1.80;;;6.70;99.90;;;;;;4807367;29;20398;-82
2021/03/12 08:30:54;;;;;;;1.92;1.80;;;6.70;99.90;;;;;;4805339;29;20457;-80
2021/03/12 08:33:40;;;;;;;3.93;2.73;;;6.90;99.90;;;;;;4771172;29;20411;-81
2021/03/12 08:36:12;;;;;;;1.73;1.63;;;6.90;99.90;;;;;;4787765;29;20548;-80
2021/03/12 08:38:56;;;;;;;1.83;1.70;;;7.00;99.90;;;;;;4771939;29;20420;-82
2021/03/12 08:41:51;;;;;;;1.67;1.58;;;6.90;99.90;;;;;;4751754;30;20884;-83
2021/03/12 08:44:32;;;;;;;1.90;1.80;;;6.70;99.90;;;;;;4773919;29;20419;-81
2021/03/12 08:47:12;;;;;;;2.08;1.88;;;6.70;99.90;;;;;;4780566;29;20498;-80
2021/03/12 08:49:41;;;;;;;1.83;1.63;;;6.70;99.90;;;;;;4766716;29;20909;-81
2021/03/12 08:52:14;;;;;;;2.20;1.60;;;6.80;99.90;;;;;;4771089;29;20418;-78
2021/03/12 08:54:42;;;;;;;1.83;1.73;;;6.90;99.90;;;;;;4770531;29;20428;-79
2021/03/12 08:57:21;;;;;;;2.28;1.55;;;7.00;99.90;;;;;;4769942;29;20419;-78
2021/03/12 09:00:06;;;;;;;1.90;1.80;;;7.10;99.90;;;;;;4757367;29;20920;-79
2021/03/12 09:02:51;;;;;;;2.00;1.80;;;7.00;99.90;;;;;;4762560;29;20426;-78
2021/03/12 09:05:28;;;;;;;2.30;1.70;;;7.10;99.90;;;;;;4767639;30;20911;-82
2021/03/12 09:08:27;;;;;;;2.08;1.77;;;7.20;99.90;;;;;;4794737;29;20417;-80
2021/03/12 09:11:16;;;;;;;2.00;1.90;;;7.20;99.90;;;;;;4787701;29;20411;-78
2021/03/12 09:13:52;;;;;;;2.00;1.73;;;7.30;99.90;;;;;;4771610;29;20399;-81
2021/03/12 09:16:22;;;;;;;2.13;1.92;;;7.40;99.90;;;;;;4792074;29;20928;-77
2021/03/12 09:18:49;;;;;;;2.63;1.73;;;7.50;99.90;;;;;;4788590;29;20421;-80
2021/03/12 09:21:26;;;;;;;2.35;1.90;;;7.40;99.90;;;;;;4750475;30;20460;-78
2021/03/12 09:23:58;;;;;;;1.77;1.67;;;7.50;99.90;;;;;;4767094;30;20440;-78
2021/03/12 09:26:32;;;;;;;1.92;1.50;;;7.50;99.90;;;;;;4773011;29;20484;-76
2021/03/12 09:29:07;;;;;;;1.83;1.73;;;7.40;99.90;;;;;;4770602;29;20832;-75
2021/03/12 09:31:39;;;;;;;1.58;1.48;;;7.30;99.90;;;;;;4768362;29;20506;-76
2021/03/12 09:34:15;;;;;;;2.08;1.85;;;7.30;99.90;;;;;;4767429;29;20498;-78
2021/03/12 09:36:52;;;;;;;2.15;1.98;;;7.20;99.90;;;;;;4772002;29;20423;-77
2021/03/12 09:39:40;;;;;;;1.77;1.60;;;7.20;99.90;;;;;;4777379;29;20423;-75
2021/03/12 09:42:15;;;;;;;1.70;1.60;;;7.20;99.90;;;;;;4769155;29;20432;-76
2021/03/12 09:44:53;;;;;;;2.88;1.73;;;7.10;99.90;;;;;;4769865;29;20542;-75
2021/03/12 09:47:27;;;;;;;1.80;1.55;;;7.20;99.90;;;;;;4770056;29;20502;-77
2021/03/12 09:49:59;;;;;;;1.75;1.65;;;7.10;99.90;;;;;;4771871;29;20415;-75
2021/03/12 09:52:50;;;;;;;1.48;1.38;;;7.20;99.90;;;;;;4774025;29;20418;-76
2021/03/12 09:55:28;;;;;;;1.80;1.60;;;7.30;99.90;;;;;;4778583;29;20437;-76
2021/03/12 09:57:56;;;;;;;1.60;1.50;;;7.40;99.90;;;;;;4779308;29;20461;-76
2021/03/12 10:00:29;;;;;;;2.20;2.00;;;7.40;99.90;;;;;;4775211;29;20428;-78
2021/03/12 10:03:02;;;;;;;2.13;1.60;;;7.40;99.90;;;;;;4773599;29;20778;-79
2021/03/12 10:05:49;;;;;;;1.80;1.70;;;7.50;99.90;;;;;;4774497;29;20973;-77
2021/03/12 10:09:00;;;;;;;1.70;1.50;;;7.80;99.90;;;;;;4793477;29;20407;-80
2021/03/12 10:11:48;;;;;;;1.73;1.63;;;8.00;99.90;;;;;;4789756;29;20499;-80
2021/03/12 10:14:27;;;;;;;2.50;1.50;;;8.20;99.90;;;;;;4772139;29;20423;-82
2021/03/12 10:17:10;;;;;;;1.83;1.73;;;8.40;99.90;;;;;;4771579;29;20425;-79
2021/03/12 10:19:59;;;;;;;1.90;1.80;;;8.50;99.90;;;;;;4772714;29;20451;-79
2021/03/12 10:22:37;;;;;;;1.80;1.70;;;8.50;99.90;;;;;;4756036;29;20427;-79
2021/03/12 10:25:11;;;;;;;1.80;1.60;;;8.30;99.90;;;;;;4786732;29;20435;-78
2021/03/12 10:27:45;;;;;;;1.95;1.80;;;8.40;99.90;;;;;;4791865;29;20425;-78
2021/03/12 10:30:24;;;;;;;1.83;1.73;;;8.50;99.90;;;;;;4776000;29;20413;-80
2021/03/12 10:33:04;;;;;;;1.92;1.83;;;8.40;99.90;;;;;;4776337;29;20428;-78
2021/03/12 10:35:43;;;;;;;3.88;1.90;;;8.50;99.90;;;;;;4776357;29;21083;-78
2021/03/12 10:38:18;;;;;;;1.70;1.60;;;8.40;99.90;;;;;;4775055;29;20411;-82
2021/03/12 10:40:49;;;;;;;1.58;1.48;;;8.50;99.90;;;;;;4789041;29;20809;-84
2021/03/12 10:43:19;;;;;;;2.00;1.90;;;8.80;99.90;;;;;;4775210;29;20467;-79
2021/03/12 10:45:47;;;;;;;1.73;1.60;;;8.90;99.90;;;;;;4773476;29;21105;-78
2021/03/12 10:48:13;;;;;;;1.77;1.67;;;8.90;99.90;;;;;;4778874;29;20502;-79
2021/03/12 10:50:40;;;;;;;2.03;1.80;;;8.80;99.90;;;;;;4777256;30;20416;-81
2021/03/12 10:53:12;;;;;;;1.60;1.50;;;8.90;99.90;;;;;;4784105;29;20433;-83
2021/03/12 10:55:49;;;;;;;2.03;1.55;;;8.70;99.90;;;;;;4772255;29;20500;-79
2021/03/12 10:58:28;;;;;;;2.17;2.00;;;8.50;99.90;;;;;;4800524;29;20578;-78
2021/03/12 11:01:03;;;;;;;1.80;1.70;;;8.50;99.90;;;;;;4767200;29;20431;-82
2021/03/12 11:03:28;;;;;;;1.75;1.63;;;8.60;99.90;;;;;;4800848;29;20423;-79
2021/03/12 11:05:54;;;;;;;1.90;1.80;;;8.90;99.90;;;;;;4761615;30;20431;-78
2021/03/12 11:08:20;;;;;;;1.70;1.30;;;9.10;99.90;;;;;;4774770;29;20429;-83
2021/03/12 11:10:46;;;;;;;1.67;1.58;;;9.10;99.90;;;;;;4773562;29;20422;-80
2021/03/12 11:13:12;;;;;;;1.52;1.40;;;8.80;99.90;;;;;;4786438;29;20423;-78
2021/03/12 11:15:37;;;;;;;2.27;1.50;;;8.60;99.90;;;;;;4770155;29;20439;-78
2021/03/12 11:18:03;;;;;;;2.67;1.67;;;8.60;99.90;;;;;;4775816;29;20417;-79
2021/03/12 11:20:29;;;;;;;2.30;1.58;;;9.00;99.90;;;;;;4769056;29;21107;-80
2021/03/12 11:22:55;;;;;;;2.67;2.40;;;9.50;99.90;;;;;;4770340;29;20401;-78
2021/03/12 11:25:20;;;;;;;1.75;1.65;;;9.90;99.90;;;;;;4771779;29;20484;-84
2021/03/12 11:27:46;;;;;;;1.92;1.30;;;10.20;99.90;;;;;;4777413;29;20420;-86
2021/03/12 11:30:15;;;;;;;1.60;1.50;;;10.20;99.90;;;;;;4793010;29;20937;-83
2021/03/12 11:32:40;;;;;;;1.77;1.55;;;10.20;99.90;;;;;;4776730;29;20419;-82
2021/03/12 11:35:08;;;;;;;1.50;1.40;;;9.80;99.90;;;;;;4773124;29;20421;-81
2021/03/12 11:37:33;;;;;;;1.50;1.40;;;9.40;99.90;;;;;;4766834;29;20995;-79
2021/03/12 11:39:59;;;;;;;3.70;1.67;;;9.20;99.90;;;;;;4778448;29;20460;-81
2021/03/12 11:42:26;;;;;;;1.67;1.57;;;8.90;99.90;;;;;;4770815;29;20435;-81
2021/03/12 11:44:51;;;;;;;1.75;1.65;;;8.70;99.90;;;;;;4767443;29;20503;-80
2021/03/12 11:47:20;;;;;;;1.60;1.50;;;8.70;99.90;;;;;;4752847;30;20951;-80
2021/03/12 11:49:48;;;;;;;1.88;1.60;;;8.80;99.90;;;;;;4771354;29;20549;-78
2021/03/12 11:52:14;;;;;;;1.75;1.65;;;8.90;99.90;;;;;;4770772;29;20416;-79
2021/03/12 11:54:41;;;;;;;1.83;1.55;;;9.00;99.90;;;;;;4770803;29;20973;-80
2021/03/12 11:57:07;;;;;;;1.70;1.60;;;8.90;99.90;;;;;;4770302;29;20447;-79
2021/03/12 11:59:33;;;;;;;1.60;1.50;;;9.00;99.90;;;;;;4771438;29;20439;-79
2021/03/12 12:02:00;;;;;;;1.43;1.33;;;9.10;99.90;;;;;;4770584;29;20458;-81
2021/03/12 12:04:27;;;;;;;2.17;1.50;;;9.10;99.90;;;;;;4769979;29;20427;-79
2021/03/12 12:06:53;;;;;;;1.63;1.52;;;9.30;99.90;;;;;;4768617;29;20418;-79
2021/03/12 12:09:19;;;;;;;3.50;1.55;;;9.60;99.90;;;;;;4780140;29;20413;-79
2021/03/12 12:11:45;;;;;;;1.63;1.52;;;9.60;99.90;;;;;;4783061;29;20482;-82
2021/03/12 12:14:10;;;;;;;1.50;1.40;;;9.70;99.90;;;;;;4769450;29;20577;-83
2021/03/12 12:16:36;;;;;;;1.63;1.52;;;9.80;99.90;;;;;;4779966;29;20426;-81
2021/03/12 12:19:07;;;;;;;2.40;1.67;;;10.00;99.90;;;;;;4772505;29;20425;-80
2021/03/12 12:21:34;;;;;;;1.55;1.13;;;10.20;99.90;;;;;;4776398;29;20431;-83
2021/03/12 12:23:59;;;;;;;1.85;1.58;;;10.10;99.90;;;;;;4777288;29;20402;-82
2021/03/12 12:26:25;;;;;;;1.80;1.60;;;10.00;99.90;;;;;;4781595;29;20426;-82
2021/03/12 12:28:51;;;;;;;1.50;1.40;;;10.20;99.90;;;;;;4791180;29;20499;-80
2021/03/12 12:31:17;;;;;;;1.40;1.30;;;10.10;99.90;;;;;;4768477;29;20425;-82
2021/03/12 12:33:44;;;;;;;2.28;1.83;;;9.90;99.90;;;;;;4769880;29;20426;-79
2021/03/12 12:36:10;;;;;;;3.03;1.80;;;9.90;99.90;;;;;;4772832;29;20445;-79
2021/03/12 12:38:36;;;;;;;1.73;1.38;;;9.80;99.90;;;;;;4773202;29;20434;-81
2021/03/12 12:41:02;;;;;;;1.60;1.50;;;9.50;99.90;;;;;;4772409;29;20433;-79
2021/03/12 12:43:28;;;;;;;2.00;1.67;;;9.30;99.90;;;;;;4766176;30;20775;-80
2021/03/12 12:45:54;;;;;;;1.45;1.35;;;9.00;99.90;;;;;;4768656;29;20450;-80
2021/03/12 12:48:19;;;;;;;1.50;1.40;;;8.90;99.90;;;;;;4785248;29;20404;-80
2021/03/12 12:50:45;;;;;;;3.78;1.52;;;8.80;99.90;;;;;;4779795;29;20411;-82
2021/03/12 12:53:11;;;;;;;1.33;1.23;;;8.90;99.90;;;;;;4769738;29;20419;-79
2021/03/12 12:55:37;;;;;;;1.90;1.40;;;8.90;99.90;;;;;;4769692;29;21078;-78
2021/03/12 12:58:03;;;;;;;1.70;1.60;;;9.10;99.90;;;;;;4769506;29;20419;-81
2021/03/12 13:00:29;;;;;;;2.00;1.40;;;9.20;99.90;;;;;;4769406;29;20774;-78
2021/03/12 13:02:55;;;;;;;2.45;1.70;;;9.50;99.90;;;;;;4771560;29;20407;-83
2021/03/12 13:05:20;;;;;;;1.90;1.65;;;9.70;99.90;;;;;;4777786;29;20512;-82
2021/03/12 13:07:47;;;;;;;1.50;1.40;;;9.90;99.90;;;;;;4760459;29;20760;-80
2021/03/12 13:10:13;;;;;;;2.53;1.40;;;10.10;99.90;;;;;;4775020;29;20409;-81
2021/03/12 13:12:39;;;;;;;1.50;1.40;;;10.20;99.90;;;;;;4773552;29;20439;-79
2021/03/12 13:15:05;;;;;;;1.05;1.05;;;10.20;99.90;;;;;;4788336;29;20498;-79
2021/03/12 13:17:31;;;;;;;1.40;1.30;;;10.40;99.90;;;;;;4773739;29;20411;-82
2021/03/12 13:19:57;;;;;;;1.40;1.30;;;10.30;99.90;;;;;;4786782;29;20505;-82
2021/03/12 13:22:24;;;;;;;1.83;1.20;;;10.20;99.90;;;;;;4788361;29;20480;-79